Sabina, Ohio
Current Conditions -  °F | °C
As of 6:54 PM on Friday 19 Dec 2014 (Local Time) from KILN Reporting Station
Overcast Overcast  
Wind Chill: 22°   Ceiling: 1900
Heat Index: 29°   Visibility: 10mi
Dew Point: 22°   Wind: 7mph
Humidity: 75%   Direction: 30°NNE
Pressure: 30.28"   Gusts: NA
Location:  39.49°N, 83.64°W
Report Text: KILN 192354Z AUTO 03006KT 10SM OVC019 M02/M06 A3028 RMK AO2 SLP285 T10171056 11011 21017 50018
Loading
Personal Weather Stations






























Interactive Weather Map New forecast layout! Learn more

10-Day Weather Forecast

Advertisements
Track Severe Weather on mobile